Time;durP1;ratioP1;P1;durP2;ratioP2;P2;SDS_P1;SDS_P2;PMS_P1;PMS_P2;Temp;Humidity;BMP_temperature;BMP_pressure;BME280_temperature;BME280_humidity;BME280_pressure;Samples;Min_cycle;Max_cycle;Signal;HPM_P1;HPM_P2
2022/03/11 00:00:53;;;;;;;;;;;2.00;81.80;;;;;;5019257;28;19940;-78
2022/03/11 00:03:20;;;;;;;;;;;1.90;81.60;;;;;;5010648;28;19921;-78
2022/03/11 00:05:45;;;;;;;;;;;1.90;82.00;;;;;;5048755;28;19924;-77
2022/03/11 00:08:11;;;;;;;;;;;1.80;82.80;;;;;;5033972;28;19916;-77
2022/03/11 00:10:37;;;;;;;;;;;1.70;81.80;;;;;;5051947;28;20516;-77
2022/03/11 00:13:03;;;;;;;;;;;1.70;81.90;;;;;;5051094;28;20012;-77
2022/03/11 00:15:28;;;;;;;;;;;1.70;82.10;;;;;;5033060;28;19927;-77
2022/03/11 00:17:54;;;;;;;;;;;1.60;81.90;;;;;;5050938;28;19920;-77
2022/03/11 00:20:20;;;;;;;;;;;1.60;80.90;;;;;;5034058;28;19916;-78
2022/03/11 00:22:48;;;;;;;;;;;1.50;81.30;;;;;;5026710;28;19924;-78
2022/03/11 00:25:14;;;;;;;;;;;1.50;80.70;;;;;;5050492;28;20382;-77
2022/03/11 00:27:40;;;;;;;;;;;1.50;80.10;;;;;;5033147;28;19912;-77
2022/03/11 00:30:06;;;;;;;;;;;1.50;80.30;;;;;;5037834;28;20358;-78
2022/03/11 00:32:33;;;;;;;;;;;1.40;77.80;;;;;;5033436;28;19917;-77
2022/03/11 00:34:59;;;;;;;;;;;1.50;77.60;;;;;;5015915;28;19916;-77
2022/03/11 00:37:25;;;;;;;;;;;1.50;78.80;;;;;;5016198;28;19913;-77
2022/03/11 00:39:50;;;;;;;;;;;1.40;77.80;;;;;;5050942;28;19924;-78
2022/03/11 00:42:16;;;;;;;;;;;1.40;77.70;;;;;;5051505;28;19921;-77
2022/03/11 00:44:42;;;;;;;;;;;1.30;76.60;;;;;;5034321;28;19917;-78
2022/03/11 00:47:08;;;;;;;;;;;1.30;76.20;;;;;;5035653;28;19916;-78
2022/03/11 00:49:34;;;;;;;;;;;1.30;76.10;;;;;;5037602;28;19961;-78
2022/03/11 00:51:59;;;;;;;;;;;1.20;76.60;;;;;;5037685;28;20297;-78
2022/03/11 00:54:25;;;;;;;;;;;1.20;76.80;;;;;;5036351;28;19923;-78
2022/03/11 00:56:50;;;;;;;;;;;1.10;76.20;;;;;;5054164;28;19917;-77
2022/03/11 00:59:18;;;;;;;;;;;1.10;76.10;;;;;;5051930;28;19929;-77
2022/03/11 01:01:43;;;;;;;;;;;1.00;76.10;;;;;;5054936;28;20256;-78
2022/03/11 01:04:09;;;;;;;;;;;1.00;76.40;;;;;;5036099;28;19962;-78
2022/03/11 01:06:35;;;;;;;;;;;0.90;75.90;;;;;;5054085;28;19912;-77
2022/03/11 01:09:02;;;;;;;;;;;0.90;74.00;;;;;;5036981;28;19923;-77
2022/03/11 01:11:28;;;;;;;;;;;0.90;75.00;;;;;;5008161;28;19917;-77
2022/03/11 01:13:53;;;;;;;;;;;0.90;74.70;;;;;;5035403;28;19917;-78
2022/03/11 01:16:19;;;;;;;;;;;0.80;75.00;;;;;;5054294;28;19939;-78
2022/03/11 01:18:45;;;;;;;;;;;0.80;73.50;;;;;;5034000;28;20015;-78
2022/03/11 01:21:11;;;;;;;;;;;0.80;74.00;;;;;;5062829;28;19924;-78
2022/03/11 01:23:37;;;;;;;;;;;0.80;72.60;;;;;;5054415;28;19917;-78
2022/03/11 01:26:03;;;;;;;;;;;0.80;71.70;;;;;;5016420;28;19939;-78
2022/03/11 01:28:29;;;;;;;;;;;0.80;71.40;;;;;;5032452;28;19916;-78
2022/03/11 01:30:54;;;;;;;;;;;0.80;71.40;;;;;;5036882;28;20267;-78
2022/03/11 01:33:20;;;;;;;;;;;0.80;71.80;;;;;;5036749;28;19913;-78
2022/03/11 01:35:46;;;;;;;;;;;0.80;71.10;;;;;;5044499;28;19916;-77
2022/03/11 01:38:12;;;;;;;;;;;0.70;70.40;;;;;;5035171;28;20328;-77
2022/03/11 01:40:37;;;;;;;;;;;0.70;70.70;;;;;;5038798;28;20181;-78
2022/03/11 01:43:03;;;;;;;;;;;0.70;71.00;;;;;;5019635;28;20375;-78
2022/03/11 01:45:29;;;;;;;;;;;0.70;70.60;;;;;;5019796;28;19913;-78
2022/03/11 01:47:54;;;;;;;;;;;0.60;70.60;;;;;;5034971;28;19924;-77
2022/03/11 01:50:20;;;;;;;;;;;0.60;71.40;;;;;;5026286;28;19975;-77
2022/03/11 01:52:45;;;;;;;;;;;0.60;70.40;;;;;;5018873;28;19916;-79
2022/03/11 01:55:11;;;;;;;;;;;0.60;70.10;;;;;;5052098;28;19913;-78
2022/03/11 01:57:37;;;;;;;;;;;0.60;70.10;;;;;;5049233;28;19923;-78
2022/03/11 02:00:04;;;;;;;;;;;0.60;70.00;;;;;;5017259;28;19920;-78
2022/03/11 02:02:38;;;;;;;;;;;0.60;69.00;;;;;;5028410;28;19924;-78
2022/03/11 02:05:03;;;;;;;;;;;0.50;69.80;;;;;;5054014;28;19913;-78
2022/03/11 02:07:29;;;;;;;;;;;0.50;69.80;;;;;;5035744;28;19940;-78
2022/03/11 02:09:55;;;;;;;;;;;0.50;69.70;;;;;;5054270;28;19917;-77
2022/03/11 02:12:26;;;;;;;;;;;0.50;70.10;;;;;;5052440;28;20438;-78
2022/03/11 02:14:51;;;;;;;;;;;0.50;69.80;;;;;;5051908;28;20000;-77
2022/03/11 02:17:17;;;;;;;;;;;0.50;68.60;;;;;;5052805;28;19987;-78
2022/03/11 02:19:43;;;;;;;;;;;0.50;68.50;;;;;;5035726;28;19921;-78
2022/03/11 02:22:10;;;;;;;;;;;0.50;68.90;;;;;;5053429;28;20331;-78
2022/03/11 02:24:36;;;;;;;;;;;0.50;69.10;;;;;;5032409;28;19913;-77
2022/03/11 02:27:02;;;;;;;;;;;0.40;68.60;;;;;;5034304;28;20011;-78
2022/03/11 02:29:27;;;;;;;;;;;0.40;68.70;;;;;;5052884;28;20375;-78
2022/03/11 02:31:53;;;;;;;;;;;0.30;69.30;;;;;;5019430;28;19917;-78
2022/03/11 02:34:18;;;;;;;;;;;0.30;69.20;;;;;;5034668;28;19947;-78
2022/03/11 02:36:44;;;;;;;;;;;0.20;69.10;;;;;;5018391;28;19971;-77
2022/03/11 02:39:12;;;;;;;;;;;0.20;69.00;;;;;;5046562;28;19929;-78
2022/03/11 02:41:41;;;;;;;;;;;0.20;68.20;;;;;;5042313;28;20298;-77
2022/03/11 02:44:06;;;;;;;;;;;0.20;68.20;;;;;;5055492;28;19924;-77
2022/03/11 02:46:32;;;;;;;;;;;0.20;68.00;;;;;;5073116;28;20266;-77
2022/03/11 02:48:58;;;;;;;;;;;0.20;67.90;;;;;;5054289;28;19955;-78
2022/03/11 02:51:23;;;;;;;;;;;0.20;67.50;;;;;;5034007;28;19923;-78
2022/03/11 02:53:49;;;;;;;;;;;0.20;67.70;;;;;;5052064;28;19965;-78
2022/03/11 02:56:15;;;;;;;;;;;0.20;67.90;;;;;;5034637;28;20281;-77
2022/03/11 02:58:41;;;;;;;;;;;0.10;66.80;;;;;;5034906;28;19920;-78
2022/03/11 03:01:07;;;;;;;;;;;0.10;66.40;;;;;;5053092;28;19913;-78
2022/03/11 03:03:33;;;;;;;;;;;0.10;66.70;;;;;;5051600;28;19920;-78
2022/03/11 03:05:58;;;;;;;;;;;0.10;66.70;;;;;;5031610;28;20295;-78
2022/03/11 03:08:24;;;;;;;;;;;0.10;66.10;;;;;;5031938;28;19919;-78
2022/03/11 03:10:50;;;;;;;;;;;0.10;66.90;;;;;;5017683;28;19924;-78
2022/03/11 03:13:16;;;;;;;;;;;0.00;66.90;;;;;;5033566;28;19932;-78
2022/03/11 03:15:41;;;;;;;;;;;0.00;66.20;;;;;;5014282;28;19917;-78
2022/03/11 03:18:07;;;;;;;;;;;0.00;65.90;;;;;;5017611;28;20329;-78
2022/03/11 03:20:32;;;;;;;;;;;-0.10;66.40;;;;;;5017163;28;19917;-78
2022/03/11 03:22:58;;;;;;;;;;;-0.10;66.90;;;;;;5043989;28;19921;-78
2022/03/11 03:25:24;;;;;;;;;;;-0.10;65.50;;;;;;5017236;28;19921;-78
2022/03/11 03:27:50;;;;;;;;;;;0.00;66.90;;;;;;5017679;28;19963;-78
2022/03/11 03:30:15;;;;;;;;;;;-0.10;65.80;;;;;;5052438;28;19944;-77
2022/03/11 03:32:42;;;;;;;;;;;-0.10;66.30;;;;;;5052021;28;19943;-78
2022/03/11 03:35:08;;;;;;;;;;;-0.10;65.60;;;;;;5028515;28;20351;-78
2022/03/11 03:37:34;;;;;;;;;;;-0.10;66.50;;;;;;5050963;28;20007;-78
2022/03/11 03:39:59;;;;;;;;;;;-0.10;66.80;;;;;;5043431;28;19916;-77
2022/03/11 03:42:26;;;;;;;;;;;-0.10;66.90;;;;;;5027275;28;19913;-78
2022/03/11 03:44:53;;;;;;;;;;;-0.20;66.70;;;;;;5025425;28;19913;-77
2022/03/11 03:47:20;;;;;;;;;;;-0.20;66.00;;;;;;5033955;28;19920;-78
2022/03/11 03:49:45;;;;;;;;;;;-0.20;65.90;;;;;;5032983;28;19936;-78
2022/03/11 03:52:12;;;;;;;;;;;-0.20;66.00;;;;;;5033885;28;20386;-78
2022/03/11 03:54:40;;;;;;;;;;;-0.20;67.20;;;;;;5033073;28;19917;-77
2022/03/11 03:57:07;;;;;;;;;;;-0.30;67.30;;;;;;5033130;28;20016;-78
2022/03/11 03:59:33;;;;;;;;;;;-0.30;66.80;;;;;;5017144;28;19966;-77
2022/03/11 04:01:58;;;;;;;;;;;-0.30;67.10;;;;;;5017422;28;19960;-78
2022/03/11 04:04:24;;;;;;;;;;;-0.40;66.60;;;;;;5034161;28;19924;-78
2022/03/11 04:06:50;;;;;;;;;;;-0.40;67.90;;;;;;5033904;28;19913;-78
2022/03/11 04:09:16;;;;;;;;;;;-0.40;66.60;;;;;;5033713;28;19917;-78
2022/03/11 04:11:41;;;;;;;;;;;-0.40;65.90;;;;;;5026108;28;20012;-78
2022/03/11 04:14:07;;;;;;;;;;;-0.40;66.50;;;;;;5033031;28;20306;-77
2022/03/11 04:16:33;;;;;;;;;;;-0.40;67.00;;;;;;5051520;28;20007;-78
2022/03/11 04:18:59;;;;;;;;;;;-0.40;66.20;;;;;;5051143;28;19917;-78
2022/03/11 04:21:25;;;;;;;;;;;-0.40;66.10;;;;;;5051687;28;20405;-77
2022/03/11 04:23:51;;;;;;;;;;;-0.40;65.60;;;;;;5033754;28;19923;-78
2022/03/11 04:26:17;;;;;;;;;;;-0.30;66.50;;;;;;5013892;28;19917;-79
2022/03/11 04:28:42;;;;;;;;;;;-0.40;65.40;;;;;;5033308;28;20255;-78
2022/03/11 04:31:12;;;;;;;;;;;-0.40;65.60;;;;;;5062616;28;19946;-78
2022/03/11 04:33:38;;;;;;;;;;;-0.30;65.80;;;;;;5056339;28;19955;-79
2022/03/11 04:36:06;;;;;;;;;;;-0.30;65.90;;;;;;5016397;28;20401;-78
2022/03/11 04:38:32;;;;;;;;;;;-0.30;65.90;;;;;;5033343;28;20306;-78
2022/03/11 04:40:58;;;;;;;;;;;-0.30;66.20;;;;;;5015717;28;19925;-78
2022/03/11 04:43:24;;;;;;;;;;;-0.40;65.70;;;;;;5057697;28;19919;-79
2022/03/11 04:45:50;;;;;;;;;;;-0.40;66.20;;;;;;5070008;28;20263;-77
2022/03/11 04:48:15;;;;;;;;;;;-0.40;66.20;;;;;;5067396;28;19912;-78
2022/03/11 04:50:41;;;;;;;;;;;-0.40;67.30;;;;;;5052317;28;19913;-78
2022/03/11 04:53:07;;;;;;;;;;;-0.50;66.40;;;;;;5043756;28;20355;-77
2022/03/11 04:55:32;;;;;;;;;;;-0.50;66.40;;;;;;5017483;28;19916;-79
2022/03/11 04:57:58;;;;;;;;;;;-0.50;67.10;;;;;;5036618;28;19924;-78
2022/03/11 05:00:24;;;;;;;;;;;-0.50;67.20;;;;;;5022484;28;19912;-77
2022/03/11 05:02:50;;;;;;;;;;;-0.50;66.80;;;;;;5063986;28;20000;-78
2022/03/11 05:05:16;;;;;;;;;;;-0.60;66.70;;;;;;5032866;28;19925;-78
2022/03/11 05:07:42;;;;;;;;;;;-0.60;66.40;;;;;;5001244;28;19913;-78
2022/03/11 05:10:11;;;;;;;;;;;-0.60;66.80;;;;;;5056143;28;19913;-78
2022/03/11 05:12:37;;;;;;;;;;;-0.60;67.00;;;;;;5050470;28;19975;-77
2022/03/11 05:15:06;;;;;;;;;;;-0.60;68.00;;;;;;5042384;28;20375;-77
2022/03/11 05:17:32;;;;;;;;;;;-0.60;67.60;;;;;;5037305;28;19935;-76
2022/03/11 05:19:58;;;;;;;;;;;-0.60;68.30;;;;;;5033350;28;19917;-76
2022/03/11 05:22:23;;;;;;;;;;;-0.60;67.80;;;;;;5025338;28;19917;-77
2022/03/11 05:24:49;;;;;;;;;;;-0.70;67.00;;;;;;5009510;28;19952;-77
2022/03/11 05:27:15;;;;;;;;;;;-0.70;66.80;;;;;;5030932;28;19978;-78
2022/03/11 05:29:40;;;;;;;;;;;-0.70;67.70;;;;;;5032871;28;20016;-77
2022/03/11 05:32:06;;;;;;;;;;;-0.60;67.50;;;;;;5050915;28;19919;-77
2022/03/11 05:34:32;;;;;;;;;;;-0.60;67.00;;;;;;5052097;28;20531;-77
2022/03/11 05:36:58;;;;;;;;;;;-0.60;67.30;;;;;;5044540;28;20342;-78
2022/03/11 05:39:24;;;;;;;;;;;-0.70;68.00;;;;;;5003015;28;19921;-78
2022/03/11 05:41:49;;;;;;;;;;;-0.70;66.90;;;;;;5036352;28;19917;-79
2022/03/11 05:44:19;;;;;;;;;;;-0.60;67.90;;;;;;5019590;28;20342;-77
2022/03/11 05:46:45;;;;;;;;;;;-0.70;67.10;;;;;;5035825;28;19913;-78
2022/03/11 05:49:10;;;;;;;;;;;-0.70;67.80;;;;;;5042782;28;20291;-77
2022/03/11 05:51:37;;;;;;;;;;;-0.70;67.20;;;;;;5049819;28;19928;-77
2022/03/11 05:54:03;;;;;;;;;;;-0.70;68.00;;;;;;5051519;28;19966;-78
2022/03/11 05:56:29;;;;;;;;;;;-0.70;67.70;;;;;;5053102;28;20057;-78
2022/03/11 05:58:54;;;;;;;;;;;-0.70;67.90;;;;;;5035332;28;20561;-78
2022/03/11 06:01:21;;;;;;;;;;;-0.70;67.00;;;;;;5052090;28;19912;-77
2022/03/11 06:03:47;;;;;;;;;;;-0.70;67.20;;;;;;5053098;28;20333;-77
2022/03/11 06:06:13;;;;;;;;;;;-0.70;67.40;;;;;;5053209;28;19912;-78
2022/03/11 06:08:39;;;;;;;;;;;-0.60;67.10;;;;;;5049335;28;19917;-77
2022/03/11 06:11:05;;;;;;;;;;;-0.60;67.30;;;;;;5035999;28;19920;-77
2022/03/11 06:13:30;;;;;;;;;;;-0.60;67.40;;;;;;5059151;28;19916;-77
2022/03/11 06:15:56;;;;;;;;;;;-0.60;66.70;;;;;;5052268;28;19920;-77
2022/03/11 06:18:22;;;;;;;;;;;-0.50;67.50;;;;;;5017101;28;19928;-77
2022/03/11 06:20:48;;;;;;;;;;;-0.50;66.80;;;;;;5020616;28;19921;-78
2022/03/11 06:23:14;;;;;;;;;;;-0.50;66.60;;;;;;5019427;28;19917;-77
2022/03/11 06:25:40;;;;;;;;;;;-0.50;67.10;;;;;;5034395;28;19920;-78
2022/03/11 06:28:05;;;;;;;;;;;-0.40;67.00;;;;;;5026521;28;20516;-76
2022/03/11 06:30:31;;;;;;;;;;;-0.40;67.10;;;;;;5031844;28;19920;-77
2022/03/11 06:32:56;;;;;;;;;;;-0.40;67.00;;;;;;5050292;28;20003;-77
2022/03/11 06:35:22;;;;;;;;;;;-0.30;66.20;;;;;;5051577;28;19967;-78
2022/03/11 06:37:50;;;;;;;;;;;-0.30;65.90;;;;;;5036999;28;19917;-77
2022/03/11 06:40:16;;;;;;;;;;;-0.20;66.50;;;;;;5052636;28;19999;-78
2022/03/11 06:42:43;;;;;;;;;;;-0.10;65.80;;;;;;5052664;28;19959;-76
2022/03/11 06:45:09;;;;;;;;;;;0.10;64.20;;;;;;5051193;28;19970;-77
2022/03/11 06:47:35;;;;;;;;;;;0.40;63.60;;;;;;5028366;28;19917;-78
2022/03/11 06:50:01;;;;;;;;;;;0.50;65.30;;;;;;5049231;28;19996;-77
2022/03/11 06:52:26;;;;;;;;;;;0.70;63.10;;;;;;5050213;28;19975;-77
2022/03/11 06:54:52;;;;;;;;;;;0.90;62.60;;;;;;5017292;28;19920;-77
2022/03/11 06:57:17;;;;;;;;;;;1.00;62.30;;;;;;5044652;28;20007;-76
2022/03/11 06:59:43;;;;;;;;;;;1.20;62.10;;;;;;5033357;28;19921;-77
2022/03/11 07:02:09;;;;;;;;;;;1.40;60.90;;;;;;5039272;28;19924;-78
2022/03/11 07:04:34;;;;;;;;;;;1.60;59.90;;;;;;5016117;28;19917;-77
2022/03/11 07:07:00;;;;;;;;;;;1.80;61.00;;;;;;5013487;28;19917;-77
2022/03/11 07:09:26;;;;;;;;;;;2.00;59.30;;;;;;5034451;28;19942;-78
2022/03/11 07:11:57;;;;;;;;;;;2.00;59.50;;;;;;5019477;28;19913;-77
2022/03/11 07:14:26;;;;;;;;;;;2.10;59.20;;;;;;5033069;28;20802;-78
2022/03/11 07:16:52;;;;;;;;;;;2.10;58.90;;;;;;5033779;28;20378;-77
2022/03/11 07:19:18;;;;;;;;;;;2.20;59.40;;;;;;5033061;28;19978;-77
2022/03/11 07:21:46;;;;;;;;;;;2.30;58.20;;;;;;5028948;28;19916;-77
2022/03/11 07:24:11;;;;;;;;;;;2.40;58.60;;;;;;5016414;28;19924;-77
2022/03/11 07:26:37;;;;;;;;;;;2.40;58.10;;;;;;5051565;28;19924;-77
2022/03/11 07:29:03;;;;;;;;;;;2.50;58.30;;;;;;5029976;28;19940;-78
2022/03/11 07:31:28;;;;;;;;;;;2.50;56.80;;;;;;5047810;28;19917;-76
2022/03/11 07:33:55;;;;;;;;;;;2.50;57.80;;;;;;5031638;28;19913;-77
2022/03/11 07:36:21;;;;;;;;;;;2.60;57.00;;;;;;5016554;28;19963;-79
2022/03/11 07:38:48;;;;;;;;;;;2.70;56.50;;;;;;5017051;28;19924;-79
2022/03/11 07:41:14;;;;;;;;;;;2.70;56.80;;;;;;5049543;28;20349;-79
2022/03/11 07:43:42;;;;;;;;;;;2.80;56.40;;;;;;5011717;28;19965;-78
2022/03/11 07:46:08;;;;;;;;;;;2.80;57.20;;;;;;5035127;28;19995;-79
2022/03/11 07:48:34;;;;;;;;;;;2.90;56.40;;;;;;5056348;28;19955;-77
2022/03/11 07:51:01;;;;;;;;;;;2.90;56.60;;;;;;5033799;28;19959;-80
2022/03/11 07:53:27;;;;;;;;;;;2.90;56.80;;;;;;5050533;28;19913;-79
2022/03/11 07:55:52;;;;;;;;;;;3.00;55.90;;;;;;5029711;28;19919;-78
2022/03/11 07:58:21;;;;;;;;;;;3.10;55.50;;;;;;5032986;28;20457;-80
2022/03/11 08:00:50;;;;;;;;;;;3.10;56.10;;;;;;5051667;28;19925;-79
2022/03/11 08:03:16;;;;;;;;;;;3.00;55.70;;;;;;5055051;28;20287;-78
2022/03/11 08:05:42;;;;;;;;;;;3.00;55.70;;;;;;5037040;28;20031;-78
2022/03/11 08:08:08;;;;;;;;;;;2.90;56.80;;;;;;5019118;28;20452;-78
2022/03/11 08:10:35;;;;;;;;;;;2.80;55.70;;;;;;5053525;28;19913;-79
2022/03/11 08:13:00;;;;;;;;;;;2.80;55.60;;;;;;5034630;28;19921;-79
2022/03/11 08:15:26;;;;;;;;;;;2.90;56.70;;;;;;5042204;28;19924;-78
2022/03/11 08:17:52;;;;;;;;;;;2.90;55.90;;;;;;5041322;28;19917;-79
2022/03/11 08:20:18;;;;;;;;;;;2.90;56.30;;;;;;5033866;28;20302;-78
2022/03/11 08:22:45;;;;;;;;;;;2.90;55.10;;;;;;5033071;28;20016;-78
2022/03/11 08:25:11;;;;;;;;;;;3.00;55.80;;;;;;5015351;28;19924;-81
2022/03/11 08:27:38;;;;;;;;;;;3.10;55.50;;;;;;5036677;28;19968;-79
2022/03/11 08:30:04;;;;;;;;;;;3.20;54.90;;;;;;5036419;28;19952;-79
2022/03/11 08:32:30;;;;;;;;;;;3.20;55.10;;;;;;5031069;28;20011;-79
2022/03/11 08:34:55;;;;;;;;;;;3.40;54.90;;;;;;5035614;28;19944;-77
2022/03/11 08:37:21;;;;;;;;;;;3.30;53.70;;;;;;5033342;28;19928;-78
2022/03/11 08:39:47;;;;;;;;;;;3.30;54.80;;;;;;5043749;28;19924;-80
2022/03/11 08:42:12;;;;;;;;;;;3.30;54.70;;;;;;5045700;28;20007;-78
2022/03/11 08:44:38;;;;;;;;;;;3.30;54.10;;;;;;5036797;28;19995;-78
2022/03/11 08:47:04;;;;;;;;;;;3.40;54.60;;;;;;5043316;28;20338;-80
2022/03/11 08:49:29;;;;;;;;;;;3.40;54.40;;;;;;5037519;28;20011;-78
2022/03/11 08:51:55;;;;;;;;;;;3.50;54.90;;;;;;5054437;28;19919;-78
2022/03/11 08:54:20;;;;;;;;;;;3.60;52.70;;;;;;5035987;28;19917;-77
2022/03/11 08:56:46;;;;;;;;;;;3.50;53.70;;;;;;5053849;28;20007;-77
2022/03/11 08:59:12;;;;;;;;;;;3.50;53.00;;;;;;5034021;28;19928;-78
2022/03/11 09:01:38;;;;;;;;;;;3.50;54.60;;;;;;5036855;28;20119;-79
2022/03/11 09:04:03;;;;;;;;;;;3.70;54.70;;;;;;5044018;28;20298;-79
2022/03/11 09:06:30;;;;;;;;;;;3.80;53.40;;;;;;5035388;28;19956;-78
2022/03/11 09:08:56;;;;;;;;;;;3.80;54.80;;;;;;5060925;28;20446;-76
2022/03/11 09:11:21;;;;;;;;;;;3.90;53.20;;;;;;5036532;28;19955;-76
2022/03/11 09:13:49;;;;;;;;;;;3.90;52.30;;;;;;5039069;28;19917;-77
2022/03/11 09:16:15;;;;;;;;;;;3.90;53.10;;;;;;5023259;28;20430;-78
2022/03/11 09:18:40;;;;;;;;;;;3.90;51.80;;;;;;5058349;28;19932;-78
2022/03/11 09:21:06;;;;;;;;;;;4.10;52.50;;;;;;5035172;28;19925;-79
2022/03/11 09:23:31;;;;;;;;;;;4.10;52.20;;;;;;5036389;28;19952;-77
2022/03/11 09:25:57;;;;;;;;;;;4.20;51.90;;;;;;5038879;28;19971;-77
2022/03/11 09:28:23;;;;;;;;;;;4.20;52.10;;;;;;5054143;28;20319;-78
2022/03/11 09:30:49;;;;;;;;;;;4.20;52.50;;;;;;5030635;28;20023;-77
2022/03/11 09:33:15;;;;;;;;;;;4.20;51.70;;;;;;5048683;28;19948;-77
2022/03/11 09:35:40;;;;;;;;;;;4.20;52.70;;;;;;5055636;28;19924;-77
2022/03/11 09:38:06;;;;;;;;;;;4.40;53.30;;;;;;5058492;28;19917;-77
2022/03/11 09:40:33;;;;;;;;;;;4.60;53.60;;;;;;5033067;28;19968;-76
2022/03/11 09:43:00;;;;;;;;;;;4.70;51.80;;;;;;5048711;28;19925;-77
2022/03/11 09:45:25;;;;;;;;;;;4.70;51.80;;;;;;5040452;28;19913;-77
2022/03/11 09:47:52;;;;;;;;;;;4.80;52.40;;;;;;5054845;28;19920;-77
2022/03/11 09:50:19;;;;;;;;;;;4.90;51.50;;;;;;5057771;28;19926;-75
2022/03/11 09:52:45;;;;;;;;;;;5.00;51.60;;;;;;5056652;28;19982;-77
2022/03/11 09:55:10;;;;;;;;;;;5.10;52.60;;;;;;5057154;28;19920;-77
2022/03/11 09:57:36;;;;;;;;;;;5.20;51.70;;;;;;5056503;28;19921;-77
2022/03/11 10:00:04;;;;;;;;;;;5.30;50.80;;;;;;5037394;28;20055;-76
2022/03/11 10:02:40;;;;;;;;;;;5.30;49.80;;;;;;5056355;28;19932;-78
2022/03/11 10:05:06;;;;;;;;;;;5.40;49.80;;;;;;5065636;28;20032;-77
2022/03/11 10:07:31;;;;;;;;;;;5.40;50.60;;;;;;5045983;28;19956;-77
2022/03/11 10:10:10;;;;;;;;;;;5.50;49.30;;;;;;5055738;28;19912;-78
2022/03/11 10:12:40;;;;;;;;;;;5.60;49.90;;;;;;5043963;28;19956;-77
2022/03/11 10:15:05;;;;;;;;;;;5.60;50.00;;;;;;5064013;28;19943;-77
2022/03/11 10:17:39;;;;;;;;;;;5.70;50.40;;;;;;5023159;28;20359;-76
2022/03/11 10:20:07;;;;;;;;;;;5.90;50.90;;;;;;5036181;28;20033;-77
2022/03/11 10:22:33;;;;;;;;;;;6.10;50.10;;;;;;5052273;28;19952;-78
2022/03/11 10:25:00;;;;;;;;;;;6.20;48.30;;;;;;5055961;28;19924;-77
2022/03/11 10:27:26;;;;;;;;;;;6.30;48.70;;;;;;5037045;28;19972;-76
2022/03/11 10:29:53;;;;;;;;;;;6.30;48.70;;;;;;5036587;28;20460;-77
2022/03/11 10:32:25;;;;;;;;;;;6.40;48.70;;;;;;5036685;28;19916;-76
2022/03/11 10:34:51;;;;;;;;;;;6.50;47.10;;;;;;5037176;28;19912;-78
2022/03/11 10:37:17;;;;;;;;;;;6.60;47.40;;;;;;5053708;28;20040;-77
2022/03/11 10:39:43;;;;;;;;;;;6.60;46.50;;;;;;5033204;28;20381;-76
2022/03/11 10:42:12;;;;;;;;;;;6.60;47.20;;;;;;5037305;28;20007;-77
2022/03/11 10:44:58;;;;;;;;;;;6.70;47.50;;;;;;5035559;28;19913;-77
2022/03/11 10:47:29;;;;;;;;;;;6.80;47.90;;;;;;5036158;28;19913;-78
2022/03/11 10:49:56;;;;;;;;;;;6.80;46.70;;;;;;5017439;28;19940;-77
2022/03/11 10:52:30;;;;;;;;;;;6.70;46.50;;;;;;5056084;28;19916;-76
2022/03/11 10:54:56;;;;;;;;;;;6.70;47.70;;;;;;5055411;28;19928;-77
2022/03/11 10:57:32;;;;;;;;;;;6.80;47.60;;;;;;5050168;28;19979;-77
2022/03/11 11:00:08;;;;;;;;;;;7.00;49.00;;;;;;5018124;28;19917;-78
2022/03/11 11:02:33;;;;;;;;;;;7.10;46.20;;;;;;5047421;28;19921;-78
2022/03/11 11:04:59;;;;;;;;;;;7.10;47.40;;;;;;5038392;28;19920;-77
2022/03/11 11:07:25;;;;;;;;;;;7.10;47.30;;;;;;5054908;28;19944;-77
2022/03/11 11:09:50;;;;;;;;;;;7.20;46.80;;;;;;5038034;28;19962;-77
2022/03/11 11:12:16;;;;;;;;;;;7.10;46.30;;;;;;5075454;23;19916;-84
2022/03/11 11:14:42;;;;;;;;;;;7.10;45.60;;;;;;5038230;28;19912;-85
2022/03/11 11:17:09;;;;;;;;;;;7.10;45.70;;;;;;5044796;28;19916;-83
2022/03/11 11:19:37;;;;;;;;;;;7.20;45.60;;;;;;5013508;28;19925;-86
2022/03/11 11:22:04;;;;;;;;;;;7.30;45.70;;;;;;4993012;28;19921;-86
2022/03/11 11:24:30;;;;;;;;;;;7.30;46.70;;;;;;5014254;28;19917;-84
2022/03/11 11:26:56;;;;;;;;;;;7.40;46.60;;;;;;5004608;28;19917;-83
2022/03/11 11:29:24;;;;;;;;;;;7.40;45.70;;;;;;5030112;28;19913;-84
2022/03/11 11:31:50;;;;;;;;;;;7.30;46.10;;;;;;5031227;28;19921;-84
2022/03/11 11:34:24;;;;;;;;;;;7.20;46.50;;;;;;5015467;28;19914;-83
2022/03/11 11:36:50;;;;;;;;;;;7.30;46.50;;;;;;5013326;28;20000;-85
2022/03/11 11:39:16;;;;;;;;;;;7.40;46.20;;;;;;5030764;28;20001;-85
2022/03/11 11:41:49;;;;;;;;;;;7.40;46.50;;;;;;5015354;28;19917;-85
2022/03/11 11:44:16;;;;;;;;;;;7.50;47.40;;;;;;5007728;28;19913;-84
2022/03/11 11:46:41;;;;;;;;;;;7.60;46.30;;;;;;5026526;28;19920;-84
2022/03/11 11:49:16;;;;;;;;;;;7.70;46.20;;;;;;5018963;28;19917;-84
2022/03/11 11:51:42;;;;;;;;;;;7.60;45.10;;;;;;5001201;28;19945;-84
2022/03/11 11:54:12;;;;;;;;;;;7.60;46.70;;;;;;5030752;28;19929;-84
2022/03/11 11:56:37;;;;;;;;;;;7.70;46.20;;;;;;5013925;28;20052;-85
2022/03/11 11:59:19;;;;;;;;;;;7.70;46.60;;;;;;5030925;28;19924;-84
2022/03/11 12:01:49;;;;;;;;;;;7.70;45.50;;;;;;5030744;28;19913;-84
2022/03/11 12:04:20;;;;;;;;;;;7.80;45.90;;;;;;5017452;28;20371;-85
2022/03/11 12:06:55;;;;;;;;;;;7.80;46.10;;;;;;5013944;28;19940;-84
2022/03/11 12:12:05;;;;;;;;;;;7.80;45.70;;;;;;5030521;28;19914;-84
2022/03/11 12:14:31;;;;;;;;;;;7.80;44.50;;;;;;5013052;28;19921;-85
2022/03/11 12:17:03;;;;;;;;;;;7.90;45.90;;;;;;4996981;28;20062;-84
2022/03/11 12:19:40;;;;;;;;;;;7.90;45.60;;;;;;5029770;28;20395;-84
2022/03/11 12:22:22;;;;;;;;;;;8.20;46.40;;;;;;5020540;28;19920;-84
2022/03/11 12:24:57;;;;;;;;;;;8.30;45.30;;;;;;5011550;28;19917;-84
2022/03/11 12:27:42;;;;;;;;;;;8.30;45.40;;;;;;5013955;28;20000;-84
2022/03/11 12:30:08;;;;;;;;;;;8.30;46.30;;;;;;5040555;28;19917;-85
2022/03/11 12:32:33;;;;;;;;;;;8.40;45.50;;;;;;5015895;28;19924;-85
2022/03/11 12:34:59;;;;;;;;;;;8.40;46.10;;;;;;5001453;28;19928;-85
2022/03/11 12:37:26;;;;;;;;;;;8.50;45.70;;;;;;5012279;28;19979;-85
2022/03/11 12:39:54;;;;;;;;;;;8.50;45.50;;;;;;5029459;28;19952;-85
2022/03/11 12:42:35;;;;;;;;;;;8.50;46.50;;;;;;5018989;28;19943;-85
2022/03/11 12:45:00;;;;;;;;;;;8.60;46.10;;;;;;5016739;28;20367;-86
2022/03/11 12:47:34;;;;;;;;;;;8.60;46.70;;;;;;5003068;28;19924;-85
2022/03/11 12:50:00;;;;;;;;;;;8.60;45.00;;;;;;5013151;28;19913;-85
2022/03/11 12:52:29;;;;;;;;;;;8.50;45.40;;;;;;4982258;28;19951;-85
2022/03/11 12:54:54;;;;;;;;;;;8.50;46.30;;;;;;5021686;28;19924;-85
2022/03/11 12:57:20;;;;;;;;;;;8.50;46.90;;;;;;5016419;23;20349;-78
2022/03/11 12:59:46;;;;;;;;;;;8.50;45.20;;;;;;5042512;28;19921;-77
2022/03/11 13:02:14;;;;;;;;;;;8.40;45.80;;;;;;5037279;28;21348;-78
2022/03/11 13:04:44;;;;;;;;;;;8.50;45.80;;;;;;5040052;28;19944;-78
2022/03/11 13:07:09;;;;;;;;;;;8.50;46.30;;;;;;5032588;28;19952;-78
2022/03/11 13:09:35;;;;;;;;;;;8.50;45.00;;;;;;5054323;28;20408;-78
2022/03/11 13:12:19;;;;;;;;;;;8.50;45.70;;;;;;5050696;28;20457;-78
2022/03/11 13:14:45;;;;;;;;;;;8.40;44.70;;;;;;5040871;28;19966;-77
2022/03/11 13:17:10;;;;;;;;;;;8.50;46.90;;;;;;5036007;28;19916;-77
2022/03/11 13:19:42;;;;;;;;;;;8.60;45.40;;;;;;5054238;28;19931;-77
2022/03/11 13:22:10;;;;;;;;;;;8.60;46.70;;;;;;5060461;28;19937;-77
2022/03/11 13:24:35;;;;;;;;;;;8.60;45.40;;;;;;5033213;28;19916;-77
2022/03/11 13:27:05;;;;;;;;;;;8.50;44.90;;;;;;5039467;28;19921;-77
2022/03/11 13:29:40;;;;;;;;;;;8.50;44.70;;;;;;5044920;28;19919;-77
2022/03/11 13:32:05;;;;;;;;;;;8.40;45.20;;;;;;5024106;28;19913;-77
2022/03/11 13:34:34;;;;;;;;;;;8.40;45.30;;;;;;5050917;28;20390;-77
2022/03/11 13:37:09;;;;;;;;;;;8.40;44.50;;;;;;5038178;28;19917;-76
2022/03/11 13:39:34;;;;;;;;;;;8.40;45.60;;;;;;5062620;28;20051;-78
2022/03/11 13:42:00;;;;;;;;;;;8.50;46.80;;;;;;5039592;28;19974;-78
2022/03/11 13:44:27;;;;;;;;;;;8.60;46.40;;;;;;5023472;28;20003;-77
2022/03/11 13:46:57;;;;;;;;;;;8.60;46.00;;;;;;5040087;28;19939;-78
2022/03/11 13:49:23;;;;;;;;;;;8.60;44.40;;;;;;5055962;28;19940;-78
2022/03/11 13:51:51;;;;;;;;;;;8.70;44.40;;;;;;5038570;28;19987;-77
2022/03/11 13:54:28;;;;;;;;;;;8.60;43.80;;;;;;5064698;28;20352;-77
2022/03/11 13:56:56;;;;;;;;;;;8.60;46.00;;;;;;5056846;28;20055;-77
2022/03/11 13:59:27;;;;;;;;;;;8.70;45.40;;;;;;5055458;28;19924;-78
2022/03/11 14:01:53;;;;;;;;;;;8.60;44.70;;;;;;5051493;28;19920;-77
2022/03/11 14:04:20;;;;;;;;;;;8.50;44.00;;;;;;5035128;28;19921;-77
2022/03/11 14:06:46;;;;;;;;;;;8.40;44.70;;;;;;5038640;28;19916;-78
2022/03/11 14:09:11;;;;;;;;;;;8.40;45.70;;;;;;5056057;28;19917;-79
2022/03/11 14:11:37;;;;;;;;;;;8.40;44.90;;;;;;5046029;28;19913;-77
2022/03/11 14:14:22;;;;;;;;;;;8.30;45.00;;;;;;5057048;28;19913;-77
2022/03/11 14:16:59;;;;;;;;;;;8.30;44.60;;;;;;5033459;28;19914;-78
2022/03/11 14:19:24;;;;;;;;;;;8.20;43.90;;;;;;5051693;28;20154;-77
2022/03/11 14:21:50;;;;;;;;;;;8.20;45.50;;;;;;5038832;28;19963;-77
2022/03/11 14:24:16;;;;;;;;;;;8.30;46.40;;;;;;5054055;28;19912;-78
2022/03/11 14:26:44;;;;;;;;;;;8.30;45.20;;;;;;5032205;28;19921;-77